Time;durP1;ratioP1;P1;durP2;ratioP2;P2;SDS_P1;SDS_P2;PMS_P1;PMS_P2;Temp;Humidity;BMP_temperature;BMP_pressure;BME280_temperature;BME280_humidity;BME280_pressure;Samples;Min_cycle;Max_cycle;Signal;HPM_P1;HPM_P2
2021/11/14 00:01:45;;;;;;;27.35;20.08;;;;;;;9.01;100.00;101711.50;5095715;28;20020;-34
2021/11/14 00:04:11;;;;;;;30.03;20.53;;;;;;;8.99;100.00;101708.19;5095802;28;20077;-34
2021/11/14 00:06:38;;;;;;;30.42;20.27;;;;;;;9.00;100.00;101711.69;5095675;28;20361;-34
2021/11/14 00:09:03;;;;;;;;;;;;;;;9.07;100.00;101712.56;5096363;28;20028;-34
2021/11/14 00:11:29;;;;;;;23.45;16.77;;;;;;;9.00;100.00;101709.00;5095567;28;20014;-34
2021/11/14 00:13:57;;;;;;;27.13;19.67;;;;;;;8.95;100.00;101706.06;5095182;28;20492;-34
2021/11/14 00:16:23;;;;;;;27.52;19.95;;;;;;;8.96;100.00;101713.13;5095832;28;20024;-34
2021/11/14 00:18:48;;;;;;;31.00;19.97;;;;;;;8.96;100.00;101710.44;5095974;28;20084;-34
2021/11/14 00:21:17;;;;;;;30.52;21.35;;;;;;;8.97;100.00;101718.31;5095358;28;20024;-34
2021/11/14 00:23:43;;;;;;;32.95;22.80;;;;;;;8.97;100.00;101720.19;5095942;28;20088;-34
2021/11/14 00:26:09;;;;;;;30.20;21.35;;;;;;;8.97;100.00;101726.41;5095311;28;20472;-34
2021/11/14 00:28:35;;;;;;;35.97;23.92;;;;;;;8.96;100.00;101722.06;5095337;28;20032;-34
2021/11/14 00:31:00;;;;;;;35.13;23.83;;;;;;;8.95;100.00;101730.34;5094565;28;20066;-34
2021/11/14 00:33:26;;;;;;;33.83;23.23;;;;;;;8.95;100.00;101736.56;5095405;28;20375;-34
2021/11/14 00:35:52;;;;;;;36.13;24.92;;;;;;;8.87;100.00;101715.16;5095087;28;20040;-34
2021/11/14 00:38:24;;;;;;;41.95;28.27;;;;;;;8.92;100.00;101745.06;5096121;28;20081;-34
2021/11/14 00:40:50;;;;;;;43.95;28.77;;;;;;;8.92;100.00;101730.75;5095028;28;20032;-34
2021/11/14 00:43:15;;;;;;;42.60;28.08;;;;;;;8.93;100.00;101737.78;5094946;28;20043;-34
2021/11/14 00:45:44;;;;;;;45.80;29.25;;;;;;;8.84;100.00;101720.97;5094707;28;20063;-34
2021/11/14 00:48:10;;;;;;;44.10;29.02;;;;;;;8.92;100.00;101736.97;5094837;28;20460;-34
2021/11/14 00:50:38;;;;;;;48.00;28.80;;;;;;;8.94;100.00;101740.31;5094530;28;20070;-34
2021/11/14 00:53:04;;;;;;;43.22;27.05;;;;;;;8.95;100.00;101741.16;5094450;28;20258;-34
2021/11/14 00:55:31;;;;;;;43.03;28.90;;;;;;;8.92;100.00;101736.97;5094354;28;20062;-34
2021/11/14 00:57:57;;;;;;;45.40;29.17;;;;;;;8.93;100.00;101735.97;5094871;28;20246;-34
2021/11/14 01:00:24;;;;;;;47.77;29.67;;;;;;;8.87;100.00;101727.81;5094972;28;20468;-34
2021/11/14 01:02:50;;;;;;;45.88;29.83;;;;;;;8.97;100.00;101739.91;5094578;28;20070;-34
2021/11/14 01:05:17;;;;;;;48.28;29.95;;;;;;;8.95;100.00;101752.75;5094623;28;20107;-34
2021/11/14 01:07:42;;;;;;;47.33;28.83;;;;;;;8.88;100.00;101741.13;5095019;28;20035;-34
2021/11/14 01:10:11;;;;;;;46.23;30.07;;;;;;;8.88;100.00;101746.50;5094749;28;20328;-34
2021/11/14 01:12:37;;;;;;;55.03;32.97;;;;;;;8.85;100.00;101749.59;5094220;28;20059;-34
2021/11/14 01:15:05;;;;;;;51.97;31.50;;;;;;;8.83;100.00;101756.19;5094621;28;20028;-34
2021/11/14 01:17:30;;;;;;;47.85;31.08;;;;;;;8.84;100.00;101755.19;5094298;28;20147;-34
2021/11/14 01:19:57;;;;;;;51.03;30.77;;;;;;;8.82;100.00;101755.38;5094885;28;20503;-34
2021/11/14 01:22:22;;;;;;;53.80;32.72;;;;;;;8.81;100.00;101769.88;5094159;28;20024;-34
2021/11/14 01:24:48;;;;;;;54.27;33.27;;;;;;;8.83;100.00;101772.38;5094191;28;20031;-34
2021/11/14 01:27:14;;;;;;;47.30;30.73;;;;;;;8.82;100.00;101770.72;5094414;28;20295;-34
2021/11/14 01:29:40;;;;;;;57.45;33.80;;;;;;;8.73;100.00;101751.16;5094888;28;20598;-34
2021/11/14 01:32:05;;;;;;;49.35;31.13;;;;;;;8.81;100.00;101771.75;5093723;28;20024;-34
2021/11/14 01:34:31;;;;;;;47.92;29.65;;;;;;;8.77;100.00;101774.84;5094219;28;20127;-34
2021/11/14 01:36:56;;;;;;;49.40;32.13;;;;;;;8.80;100.00;101780.88;5093625;28;20031;-34
2021/11/14 01:39:21;;;;;;;47.27;30.87;;;;;;;8.70;100.00;101770.44;5094205;28;20034;-34
2021/11/14 01:41:47;;;;;;;46.50;29.90;;;;;;;8.71;100.00;101777.50;5094149;28;20086;-34
2021/11/14 01:44:13;;;;;;;47.20;30.88;;;;;;;8.77;100.00;101788.31;5092905;28;20020;-34
2021/11/14 01:46:39;;;;;;;50.53;31.30;;;;;;;8.73;100.00;101783.50;5093743;28;20109;-34
2021/11/14 01:49:06;;;;;;;47.45;31.40;;;;;;;8.72;100.00;101787.25;5093813;28;20510;-34
2021/11/14 01:51:31;;;;;;;49.42;31.45;;;;;;;8.70;100.00;101789.31;5093699;28;20030;-34
2021/11/14 01:53:57;;;;;;;49.67;30.97;;;;;;;8.72;100.00;101800.72;5093977;28;20110;-34
2021/11/14 01:56:23;;;;;;;46.97;30.02;;;;;;;8.73;100.00;101797.81;5093317;28;20131;-34
2021/11/14 01:58:49;;;;;;;46.47;28.55;;;;;;;8.75;100.00;101805.75;5094435;28;20031;-34
2021/11/14 02:01:18;;;;;;;43.75;29.45;;;;;;;8.71;100.00;101799.91;5094048;28;20028;-34
2021/11/14 02:03:47;;;;;;;44.58;29.00;;;;;;;8.71;100.00;101790.97;5093844;28;20040;-34
2021/11/14 02:06:13;;;;;;;50.80;30.52;;;;;;;8.50;100.00;101775.66;5093738;28;20440;-34
2021/11/14 02:08:41;;;;;;;48.03;29.33;;;;;;;8.68;100.00;101800.28;5093766;28;20024;-34
2021/11/14 02:11:07;;;;;;;44.47;28.58;;;;;;;8.66;100.00;101807.72;5093010;28;20031;-34
2021/11/14 02:13:32;;;;;;;43.92;27.40;;;;;;;8.62;100.00;101794.84;5094055;28;20066;-34
2021/11/14 02:15:58;;;;;;;44.97;28.45;;;;;;;8.66;100.00;101817.69;5093300;28;20119;-34
2021/11/14 02:18:24;;;;;;;42.05;28.55;;;;;;;8.62;100.00;101805.63;5093925;28;20111;-34
2021/11/14 02:20:51;;;;;;;44.10;28.23;;;;;;;8.62;100.00;101817.25;5093328;28;20103;-34
2021/11/14 02:23:19;;;;;;;44.78;29.05;;;;;;;8.58;100.00;101823.22;5093550;28;20035;-34
2021/11/14 02:25:47;;;;;;;40.38;25.17;;;;;;;8.65;100.00;101818.72;5093271;28;20032;-34
2021/11/14 02:28:14;;;;;;;46.00;28.95;;;;;;;8.61;100.00;101831.75;5094000;28;20046;-34
2021/11/14 02:30:40;;;;;;;;;;;;;;;8.65;100.00;101830.34;5093960;28;20078;-34
2021/11/14 02:33:05;;;;;;;39.75;26.13;;;;;;;8.59;100.00;101835.66;5093115;28;20320;-34
2021/11/14 02:35:33;;;;;;;43.03;27.13;;;;;;;8.49;100.00;101826.06;5093331;28;20035;-34
2021/11/14 02:37:59;;;;;;;47.30;29.83;;;;;;;8.52;100.00;101839.13;5093515;28;20028;-34
2021/11/14 02:40:24;;;;;;;41.05;27.27;;;;;;;8.55;100.00;101840.63;5093350;28;20395;-34
2021/11/14 02:42:50;;;;;;;45.23;28.63;;;;;;;8.54;100.00;101841.66;5093009;28;20459;-34
2021/11/14 02:45:20;;;;;;;43.05;27.02;;;;;;;8.54;100.00;101840.78;5093611;28;20156;-34
2021/11/14 02:47:46;;;;;;;45.10;27.70;;;;;;;8.50;100.00;101835.81;5093049;28;20028;-34
2021/11/14 02:50:13;;;;;;;44.88;29.45;;;;;;;8.47;100.00;101838.88;5092984;28;20020;-34
2021/11/14 02:52:39;;;;;;;42.90;27.73;;;;;;;8.51;100.00;101842.88;5092729;28;20497;-34
2021/11/14 02:55:06;;;;;;;;;;;;;;;8.56;100.00;101846.84;5096089;28;20476;-34
2021/11/14 02:57:32;;;;;;;44.67;28.17;;;;;;;8.45;100.00;101853.59;5097436;28;19982;-34
2021/11/14 02:59:57;;;;;;;41.73;27.57;;;;;;;8.38;100.00;101841.91;5096636;28;20468;-34
2021/11/14 03:02:22;;;;;;;41.17;26.77;;;;;;;8.45;100.00;101849.03;5096887;28;20035;-34
2021/11/14 03:04:48;;;;;;;38.80;26.63;;;;;;;8.30;100.00;101834.75;5096628;28;20028;-34
2021/11/14 03:07:13;;;;;;;44.03;27.80;;;;;;;8.42;100.00;101854.78;5096588;28;20093;-34
2021/11/14 03:09:39;;;;;;;42.60;26.43;;;;;;;8.39;100.00;101854.34;5097041;28;20258;-34
2021/11/14 03:12:04;;;;;;;41.37;27.00;;;;;;;8.42;100.00;101860.19;5096721;28;20035;-34
2021/11/14 03:14:30;;;;;;;40.92;28.23;;;;;;;8.41;100.00;101857.69;5097252;28;20124;-34
2021/11/14 03:16:55;;;;;;;41.10;26.53;;;;;;;8.40;100.00;101864.13;5096297;28;20114;-34
2021/11/14 03:19:22;;;;;;;41.23;26.13;;;;;;;8.40;100.00;101854.16;5096786;28;20341;-34
2021/11/14 03:21:48;;;;;;;42.25;26.48;;;;;;;8.45;100.00;101864.38;5096222;28;20024;-34
2021/11/14 03:24:14;;;;;;;42.15;25.60;;;;;;;8.44;100.00;101866.25;5096731;28;20591;-34
2021/11/14 03:26:40;;;;;;;;;;;;;;;8.49;100.00;101877.28;5096791;28;20032;-34
2021/11/14 03:29:05;;;;;;;37.40;25.27;;;;;;;8.42;100.00;101875.53;5096964;28;19934;-34
2021/11/14 03:31:31;;;;;;;39.70;26.10;;;;;;;8.36;100.00;101866.34;5096339;28;20115;-34
2021/11/14 03:33:57;;;;;;;37.30;25.20;;;;;;;8.33;100.00;101864.00;5097095;28;20110;-34
2021/11/14 03:36:24;;;;;;;;;;;;;;;8.49;100.00;101882.66;5096845;28;20386;-34
2021/11/14 03:38:55;;;;;;;39.57;25.73;;;;;;;8.41;100.00;101887.34;5096714;28;19912;-34
2021/11/14 03:41:24;;;;;;;39.45;25.90;;;;;;;8.36;100.00;101882.53;5095889;28;20250;-34
2021/11/14 03:43:50;;;;;;;38.35;25.50;;;;;;;8.37;100.00;101886.88;5096168;28;20028;-34
2021/11/14 03:46:16;;;;;;;37.53;26.05;;;;;;;8.36;100.00;101887.91;5096864;28;20066;-34
2021/11/14 03:48:44;;;;;;;36.47;25.15;;;;;;;8.34;100.00;101889.91;5096235;28;20154;-34
2021/11/14 03:51:11;;;;;;;39.33;26.35;;;;;;;8.30;100.00;101891.34;5096028;28;20024;-34
2021/11/14 03:53:37;;;;;;;36.42;25.42;;;;;;;8.30;100.00;101888.66;5096212;28;20028;-34
2021/11/14 03:56:04;;;;;;;38.60;25.73;;;;;;;8.26;100.00;101893.56;5095803;28;20361;-34
2021/11/14 03:58:30;;;;;;;37.17;25.15;;;;;;;8.28;100.00;101901.47;5096441;28;20028;-34
2021/11/14 04:00:59;;;;;;;50.00;31.35;;;;;;;8.19;100.00;101906.13;5095829;28;20379;-34
2021/11/14 04:03:26;;;;;;;43.78;29.17;;;;;;;8.19;100.00;101913.38;5095782;28;20036;-34
2021/11/14 04:05:52;;;;;;;43.88;27.65;;;;;;;8.14;100.00;101902.34;5095750;28;20054;-34
2021/11/14 04:08:21;;;;;;;42.53;26.98;;;;;;;8.05;100.00;101896.22;5095664;28;20107;-34
2021/11/14 04:10:49;;;;;;;36.92;24.95;;;;;;;8.10;100.00;101903.72;5095600;28;20024;-34
2021/11/14 04:13:16;;;;;;;39.83;26.23;;;;;;;8.15;100.00;101907.56;5095863;28;20398;-34
2021/11/14 04:15:42;;;;;;;41.95;26.38;;;;;;;8.15;100.00;101907.56;5095344;28;20032;-34
2021/11/14 04:18:08;;;;;;;39.03;26.50;;;;;;;8.15;100.00;101914.78;5095895;28;20028;-34
2021/11/14 04:20:37;;;;;;;42.75;27.88;;;;;;;8.16;100.00;101920.00;5095664;28;20403;-35
2021/11/14 04:23:04;;;;;;;45.63;28.33;;;;;;;8.11;100.00;101919.72;5096154;28;20106;-34
2021/11/14 04:25:30;;;;;;;44.30;29.85;;;;;;;8.10;100.00;101917.19;5095283;28;20035;-34
2021/11/14 04:27:57;;;;;;;49.38;32.38;;;;;;;7.88;100.00;101879.44;5095375;28;20107;-34
2021/11/14 04:30:23;;;;;;;48.78;28.88;;;;;;;8.06;100.00;101914.06;5095029;28;20029;-34
2021/11/14 04:32:50;;;;;;;58.28;33.10;;;;;;;8.06;100.00;101921.31;5095150;28;20085;-34
2021/11/14 04:35:16;;;;;;;54.10;30.90;;;;;;;8.06;100.00;101922.16;5095128;28;20139;-34
2021/11/14 04:37:42;;;;;;;53.10;32.15;;;;;;;7.96;100.00;101914.34;5095372;28;20022;-34
2021/11/14 04:40:09;;;;;;;47.05;29.73;;;;;;;8.10;100.00;101925.28;5095772;28;20107;-34
2021/11/14 04:42:35;;;;;;;51.15;29.58;;;;;;;8.12;100.00;101925.94;5094933;28;20103;-34
2021/11/14 04:45:02;;;;;;;50.88;29.63;;;;;;;8.14;100.00;101931.97;5095505;28;20057;-34
2021/11/14 04:47:27;;;;;;;;;;;;;;;8.20;100.00;101932.06;5095135;28;20020;-34
2021/11/14 04:49:52;;;;;;;61.80;34.33;;;;;;;8.13;100.00;101933.00;5095663;28;19998;-34
2021/11/14 04:52:18;;;;;;;54.00;31.80;;;;;;;8.15;100.00;101937.19;5095352;28;20076;-34
2021/11/14 04:54:43;;;;;;;60.53;32.33;;;;;;;8.16;100.00;101933.47;5095345;28;20035;-34
2021/11/14 04:57:09;;;;;;;54.80;30.77;;;;;;;8.17;100.00;101926.22;5094372;28;20285;-34
2021/11/14 04:59:34;;;;;;;58.70;33.35;;;;;;;8.17;100.00;101931.59;5094718;28;20460;-34
2021/11/14 05:02:00;;;;;;;73.83;38.60;;;;;;;8.14;100.00;101929.28;5094326;28;20035;-34
2021/11/14 05:04:26;;;;;;;65.40;34.83;;;;;;;8.07;100.00;101929.19;5094940;28;20051;-35
2021/11/14 05:06:51;;;;;;;64.72;34.30;;;;;;;8.17;100.00;101932.44;5094805;28;20384;-34
2021/11/14 05:09:16;;;;;;;62.43;31.87;;;;;;;8.22;100.00;101942.66;5095201;28;20031;-34
2021/11/14 05:11:42;;;;;;;64.13;32.97;;;;;;;8.14;100.00;101926.56;5094432;28;20040;-34
2021/11/14 05:14:07;;;;;;;71.97;34.53;;;;;;;8.18;100.00;101947.56;5095405;28;20040;-34
2021/11/14 05:16:33;;;;;;;68.28;34.90;;;;;;;8.13;100.00;101939.22;5094421;28;20035;-34
2021/11/14 05:18:58;;;;;;;68.20;34.80;;;;;;;8.19;100.00;101951.94;5094403;28;20035;-34
2021/11/14 05:21:23;;;;;;;72.50;37.38;;;;;;;8.24;100.00;101956.75;5095061;28;20102;-34
2021/11/14 05:23:49;;;;;;;68.90;33.83;;;;;;;8.26;100.00;101966.34;5094627;28;20031;-34
2021/11/14 05:26:15;;;;;;;65.00;34.10;;;;;;;8.21;100.00;101955.28;5094148;28;20035;-34
2021/11/14 05:28:40;;;;;;;76.18;38.85;;;;;;;8.25;100.00;101971.94;5094976;28;20254;-34
2021/11/14 05:31:06;;;;;;;69.60;35.03;;;;;;;8.27;100.00;101975.25;5093872;28;20028;-34
2021/11/14 05:33:31;;;;;;;65.88;35.63;;;;;;;8.26;100.00;101978.97;5094405;28;20300;-34
2021/11/14 05:35:57;;;;;;;72.55;35.35;;;;;;;8.30;100.00;101988.38;5093924;28;20104;-34
2021/11/14 05:38:22;;;;;;;68.88;36.13;;;;;;;8.31;100.00;101987.34;5093770;28;20495;-34
2021/11/14 05:40:48;;;;;;;71.60;35.13;;;;;;;8.32;100.00;101985.47;5094099;28;20036;-34
2021/11/14 05:43:14;;;;;;;66.50;35.90;;;;;;;8.34;100.00;101983.41;5093875;28;20054;-34
2021/11/14 05:45:40;;;;;;;85.60;42.38;;;;;;;8.29;100.00;101983.97;5093821;28;20365;-34
2021/11/14 05:48:06;;;;;;;73.60;37.15;;;;;;;8.30;100.00;101991.06;5094432;28;20110;-34
2021/11/14 05:50:32;;;;;;;68.43;35.47;;;;;;;8.34;100.00;101992.31;5093779;28;20032;-34
2021/11/14 05:52:57;;;;;;;68.70;35.35;;;;;;;8.34;100.00;102002.28;5094000;28;20032;-34
2021/11/14 05:55:23;;;;;;;72.30;35.53;;;;;;;8.27;100.00;101984.16;5093679;28;20024;-35
2021/11/14 06:00:40;;;;;;;78.35;39.97;;;;;;;8.34;100.00;102002.28;5094349;28;20036;-35
2021/11/14 06:03:22;;;;;;;71.65;35.72;;;;;;;8.35;100.00;102004.81;5093271;28;20035;-34
2021/11/14 06:05:48;;;;;;;73.55;37.28;;;;;;;8.25;100.00;101993.47;5093551;28;20038;-34
2021/11/14 06:08:14;;;;;;;73.30;36.80;;;;;;;8.36;100.00;102006.50;5093472;28;20115;-35
2021/11/14 06:10:39;;;;;;;71.88;36.10;;;;;;;8.37;100.00;102013.56;5093081;28;20533;-35
2021/11/14 06:13:05;;;;;;;70.33;36.57;;;;;;;8.25;100.00;102005.09;5093864;28;20048;-35
2021/11/14 06:15:31;;;;;;;79.47;40.73;;;;;;;8.35;100.00;102020.97;5093012;28;20073;-34
2021/11/14 06:17:56;;;;;;;75.32;38.38;;;;;;;8.34;100.00;102019.28;5093440;28;20074;-34
2021/11/14 06:20:22;;;;;;;77.70;38.28;;;;;;;8.36;100.00;102025.38;5093165;28;20071;-34
2021/11/14 06:22:48;;;;;;;73.28;36.60;;;;;;;8.36;100.00;102022.69;5093348;28;20438;-34
2021/11/14 06:25:14;;;;;;;75.55;37.83;;;;;;;8.32;100.00;102005.16;5093312;28;20032;-34
2021/11/14 06:27:39;;;;;;;72.33;35.80;;;;;;;8.32;100.00;102017.81;5093210;28;20039;-34
2021/11/14 06:30:09;;;;;;;68.03;34.65;;;;;;;8.37;100.00;102040.50;5093014;28;20020;-34
2021/11/14 06:32:34;;;;;;;63.10;34.13;;;;;;;8.36;100.00;102027.19;5093054;28;20039;-34
2021/11/14 06:35:00;;;;;;;64.97;34.72;;;;;;;8.39;100.00;102040.31;5093200;28;20032;-34
2021/11/14 06:37:27;;;;;;;68.72;35.33;;;;;;;8.41;100.00;102057.16;5092822;28;20028;-35
2021/11/14 06:39:52;;;;;;;73.57;37.60;;;;;;;8.31;100.00;102043.09;5093717;28;20050;-35
2021/11/14 06:42:17;;;;;;;67.27;35.40;;;;;;;8.38;100.00;102052.97;5093176;28;20519;-34
2021/11/14 06:44:44;;;;;;;63.53;34.03;;;;;;;8.30;100.00;102042.25;5093371;28;20725;-35
2021/11/14 06:47:10;;;;;;;64.00;33.83;;;;;;;8.34;100.00;102057.00;5092968;28;20108;-34
2021/11/14 06:49:36;;;;;;;68.07;35.30;;;;;;;8.36;100.00;102060.41;5093391;28;20078;-34
2021/11/14 06:52:01;;;;;;;67.90;35.47;;;;;;;8.37;100.00;102074.72;5093051;28;20058;-35
2021/11/14 06:54:26;;;;;;;64.15;36.38;;;;;;;8.32;100.00;102083.31;5093327;28;20027;-35
2021/11/14 06:56:52;;;;;;;64.20;36.23;;;;;;;8.32;100.00;102077.09;5092963;28;20119;-35
2021/11/14 06:59:17;;;;;;;68.67;38.03;;;;;;;8.31;100.00;102088.91;5092773;28;20112;-34
2021/11/14 07:01:43;;;;;;;64.33;35.57;;;;;;;8.30;100.00;102081.84;5093288;28;20028;-35
2021/11/14 07:04:08;;;;;;;63.13;36.60;;;;;;;8.31;100.00;102095.13;5093568;28;20417;-35
2021/11/14 07:06:33;;;;;;;66.27;37.80;;;;;;;8.31;100.00;102094.31;5092668;28;20115;-35
2021/11/14 07:08:59;;;;;;;66.47;36.73;;;;;;;8.24;100.00;102095.03;5093450;28;20402;-35
2021/11/14 07:11:24;;;;;;;69.27;37.73;;;;;;;8.22;100.00;102096.25;5092654;28;20024;-34
2021/11/14 07:13:49;;;;;;;66.97;35.90;;;;;;;8.22;100.00;102098.94;5093863;28;20048;-35
2021/11/14 07:16:15;;;;;;;62.27;35.47;;;;;;;8.22;100.00;102107.03;5092773;28;20039;-35
2021/11/14 07:18:41;;;;;;;66.18;36.50;;;;;;;8.19;100.00;102108.22;5093469;28;20020;-35
2021/11/14 07:21:06;;;;;;;68.22;36.10;;;;;;;8.19;100.00;102107.38;5092782;28;20062;-34
2021/11/14 07:23:32;;;;;;;68.10;37.07;;;;;;;8.19;100.00;102113.59;5092359;28;20127;-34
2021/11/14 07:25:57;;;;;;;70.90;38.73;;;;;;;8.18;100.00;102108.41;5092718;28;20039;-34
2021/11/14 07:28:23;;;;;;;69.40;38.13;;;;;;;8.19;100.00;102119.00;5092811;28;20391;-34
2021/11/14 07:30:48;;;;;;;63.03;35.47;;;;;;;8.20;100.00;102125.25;5092674;28;20259;-35
2021/11/14 07:33:14;;;;;;;62.40;35.40;;;;;;;8.15;100.00;102109.63;5092696;28;20281;-34
2021/11/14 07:35:39;;;;;;;59.40;35.63;;;;;;;8.24;100.00;102131.91;5091048;28;20031;-34
2021/11/14 07:38:05;;;;;;;59.87;35.37;;;;;;;8.22;100.00;102128.59;5091822;28;20054;-35
2021/11/14 07:40:30;;;;;;;60.03;36.37;;;;;;;8.22;100.00;102136.66;5092891;28;20110;-34
2021/11/14 07:42:57;;;;;;;65.13;36.27;;;;;;;8.28;100.00;102141.31;5095871;28;20024;-34
2021/11/14 07:45:25;;;;;;;56.20;33.97;;;;;;;8.29;100.00;102142.16;5096139;28;20262;-35
2021/11/14 07:47:52;;;;;;;58.95;37.97;;;;;;;8.25;100.00;102149.78;5096155;28;20445;-34
2021/11/14 07:50:19;;;;;;;55.58;34.25;;;;;;;8.24;100.00;102159.69;5096267;28;20030;-34
2021/11/14 07:52:45;;;;;;;59.35;39.15;;;;;;;8.18;100.00;102160.44;5096618;28;20058;-34
2021/11/14 07:55:11;;;;;;;54.50;35.13;;;;;;;8.22;100.00;102169.84;5095800;28;20035;-34
2021/11/14 07:57:42;;;;;;;52.67;32.85;;;;;;;8.19;100.00;102158.56;5096566;28;20116;-34
2021/11/14 08:00:09;;;;;;;51.58;34.17;;;;;;;8.22;100.00;102175.22;5096261;28;20024;-35
2021/11/14 08:02:35;;;;;;;52.58;32.58;;;;;;;8.18;100.00;102165.00;5095591;28;20051;-34
2021/11/14 08:05:00;;;;;;;52.77;32.30;;;;;;;8.25;100.00;102184.81;5095986;28;20067;-34
2021/11/14 08:07:27;;;;;;;50.43;32.60;;;;;;;8.23;100.00;102192.22;5095480;28;20520;-34
2021/11/14 08:09:52;;;;;;;47.40;31.55;;;;;;;8.13;100.00;102179.00;5096136;28;20286;-34
2021/11/14 08:12:18;;;;;;;46.37;29.37;;;;;;;8.17;100.00;102190.28;5095720;28;20070;-34
2021/11/14 08:14:43;;;;;;;46.63;31.03;;;;;;;8.17;100.00;102196.50;5096764;28;20044;-34
2021/11/14 08:17:08;;;;;;;44.10;29.93;;;;;;;8.11;100.00;102196.41;5095849;28;20023;-34
2021/11/14 08:19:34;;;;;;;44.13;29.20;;;;;;;8.09;100.00;102193.03;5095782;28;20103;-34
2021/11/14 08:21:59;;;;;;;45.97;29.10;;;;;;;8.10;100.00;102202.78;5095524;28;20034;-34
2021/11/14 08:24:25;;;;;;;42.30;29.27;;;;;;;8.10;100.00;102208.16;5095830;28;20103;-34
2021/11/14 08:26:50;;;;;;;41.13;27.23;;;;;;;8.02;100.00;102197.47;5095656;28;20070;-34
2021/11/14 08:29:15;;;;;;;39.50;26.20;;;;;;;8.08;100.00;102218.31;5095753;28;20028;-34
2021/11/14 08:31:41;;;;;;;41.53;27.27;;;;;;;7.98;100.00;102214.00;5095184;28;20020;-34
2021/11/14 08:34:06;;;;;;;39.47;25.90;;;;;;;8.07;100.00;102228.25;5096146;28;20028;-35
2021/11/14 08:36:32;;;;;;;38.10;26.63;;;;;;;8.03;100.00;102228.78;5094900;28;20079;-34
2021/11/14 08:38:58;;;;;;;33.33;23.77;;;;;;;8.04;100.00;102235.84;5095482;28;20026;-34
2021/11/14 08:41:24;;;;;;;34.33;22.38;;;;;;;8.04;100.00;102239.38;5095180;28;20024;-34
2021/11/14 08:43:50;;;;;;;35.33;22.27;;;;;;;7.97;100.00;102223.09;5095401;28;20040;-34
2021/11/14 08:46:16;;;;;;;33.55;23.70;;;;;;;8.02;100.00;102240.59;5094806;28;20395;-34
2021/11/14 08:48:41;;;;;;;35.75;23.63;;;;;;;7.99;100.00;102231.81;5095292;28;20456;-34
2021/11/14 08:51:07;;;;;;;34.00;23.53;;;;;;;8.09;100.00;102247.75;5094697;28;20060;-34
2021/11/14 08:53:33;;;;;;;37.30;24.95;;;;;;;8.06;100.00;102249.97;5094498;28;20486;-34
2021/11/14 08:55:59;;;;;;;32.30;21.75;;;;;;;8.08;100.00;102250.63;5094415;28;20081;-34
2021/11/14 08:58:25;;;;;;;30.50;21.23;;;;;;;8.12;100.00;102254.66;5094718;28;20035;-34
2021/11/14 09:00:53;;;;;;;32.83;22.40;;;;;;;7.99;100.00;102245.28;5094558;28;20027;-34
2021/11/14 09:03:18;;;;;;;29.38;20.30;;;;;;;8.04;100.00;102255.53;5094948;28;20101;-35
2021/11/14 09:05:44;;;;;;;30.97;22.03;;;;;;;8.13;100.00;102267.94;5094834;28;20078;-35
2021/11/14 09:08:09;;;;;;;30.10;20.40;;;;;;;8.16;100.00;102272.13;5094945;28;20276;-35
2021/11/14 09:10:37;;;;;;;30.20;20.43;;;;;;;8.15;100.00;102274.00;5094447;28;20262;-34
2021/11/14 09:13:02;;;;;;;33.00;21.92;;;;;;;8.09;100.00;102279.25;5094379;28;20043;-34
2021/11/14 09:15:29;;;;;;;29.48;19.40;;;;;;;8.13;100.00;102275.19;5094238;28;20031;-34
2021/11/14 09:17:56;;;;;;;32.13;20.73;;;;;;;8.12;100.00;102268.13;5094563;28;20027;-34
2021/11/14 09:20:22;;;;;;;29.00;20.00;;;;;;;8.21;100.00;102289.44;5094569;28;20448;-34
2021/11/14 09:22:48;;;;;;;33.35;22.83;;;;;;;8.24;100.00;102288.22;5094193;28;20352;-34
2021/11/14 09:25:14;;;;;;;27.73;20.20;;;;;;;8.20;100.00;102281.53;5093886;28;20085;-34
2021/11/14 09:27:40;;;;;;;29.77;20.17;;;;;;;8.32;100.00;102301.63;5094305;28;20028;-35
2021/11/14 09:30:07;;;;;;;29.58;20.38;;;;;;;8.33;100.00;102307.88;5094173;28;20436;-35
2021/11/14 09:32:32;;;;;;;30.13;21.02;;;;;;;8.28;100.00;102303.00;5093755;28;20020;-39
2021/11/14 09:34:57;;;;;;;27.47;20.13;;;;;;;8.31;100.00;102299.13;5094504;28;20524;-35
2021/11/14 09:37:25;;;;;;;27.63;18.93;;;;;;;8.35;100.00;102304.00;5094152;28;20127;-34
2021/11/14 09:39:51;;;;;;;28.65;19.65;;;;;;;8.41;100.00;102305.16;5093553;28;20043;-34
2021/11/14 09:42:17;;;;;;;32.28;20.10;;;;;;;8.39;100.00;102310.69;5093611;28;20062;-34
2021/11/14 09:44:42;;;;;;;;;;;;;;;8.42;100.00;102315.75;5094887;28;20020;-34
2021/11/14 09:47:08;;;;;;;30.93;21.07;;;;;;;8.40;100.00;102315.09;5093793;28;19915;-35
2021/11/14 09:49:34;;;;;;;35.45;18.75;;;;;;;8.43;100.00;102317.41;5093495;28;20286;-34
2021/11/14 09:52:02;;;;;;;28.27;19.67;;;;;;;8.48;100.00;102324.97;5093728;28;20028;-35
2021/11/14 09:54:28;;;;;;;26.67;18.35;;;;;;;8.58;100.00;102327.41;5094165;28;20028;-35
2021/11/14 09:56:55;;;;;;;25.95;18.27;;;;;;;8.69;100.00;102318.91;5093476;28;20111;-34
2021/11/14 09:59:22;;;;;;;26.58;18.95;;;;;;;8.74;100.00;102311.09;5093333;28;20046;-35
2021/11/14 10:01:49;;;;;;;22.80;16.67;;;;;;;8.83;100.00;102326.16;5093748;28;20076;-34
2021/11/14 10:04:15;;;;;;;23.60;17.63;;;;;;;8.89;100.00;102325.44;5092319;28;20097;-34
2021/11/14 10:06:40;;;;;;;21.83;16.88;;;;;;;8.89;99.73;102328.16;5093443;28;20426;-34
2021/11/14 10:09:06;;;;;;;23.73;17.07;;;;;;;8.92;100.00;102330.44;5093605;28;20028;-35
2021/11/14 10:11:37;;;;;;;23.45;17.10;;;;;;;8.86;98.70;102330.34;5093143;28;20539;-35
2021/11/14 10:14:04;;;;;;;23.33;16.98;;;;;;;8.79;99.47;102319.47;5093724;28;20456;-35
2021/11/14 10:16:29;;;;;;;22.50;17.70;;;;;;;8.89;99.51;102336.22;5092876;28;20478;-35
2021/11/14 10:19:12;;;;;;;23.00;18.35;;;;;;;8.81;97.62;102347.09;5093104;28;20028;-35
2021/11/14 10:21:40;;;;;;;26.15;19.83;;;;;;;8.79;97.64;102342.91;5093941;28;20030;-35
2021/11/14 10:24:08;;;;;;;24.45;18.80;;;;;;;8.90;98.35;102351.41;5093538;28;20484;-35
2021/11/14 10:26:35;;;;;;;24.27;18.00;;;;;;;8.89;97.94;102349.72;5093080;28;20114;-35
2021/11/14 10:29:11;;;;;;;22.17;16.85;;;;;;;8.94;96.44;102346.47;5093444;28;20408;-35
2021/11/14 10:31:39;;;;;;;23.63;17.92;;;;;;;9.00;96.61;102351.13;5093169;28;20031;-35
2021/11/14 10:34:06;;;;;;;22.50;17.67;;;;;;;9.03;96.26;102337.28;5093043;28;20422;-35
2021/11/14 10:36:33;;;;;;;24.50;17.30;;;;;;;9.15;97.00;102341.19;5093118;28;20032;-35
2021/11/14 10:39:04;;;;;;;;;;;;;;;9.37;98.52;102354.78;5093735;28;20501;-36
2021/11/14 10:41:30;;;;;;;20.90;16.20;;;;;;;9.44;96.53;102356.56;5093496;28;19908;-35
2021/11/14 10:44:16;;;;;;;22.70;17.45;;;;;;;9.50;95.56;102355.81;5093170;28;20055;-34
2021/11/14 10:46:42;;;;;;;24.05;17.67;;;;;;;9.60;94.81;102347.41;5093948;28;20029;-34
2021/11/14 10:49:10;;;;;;;21.83;17.08;;;;;;;9.62;94.88;102360.75;5093949;28;20505;-35
2021/11/14 10:51:37;;;;;;;22.48;17.35;;;;;;;9.65;94.09;102358.50;5093057;28;20039;-35
2021/11/14 10:54:03;;;;;;;24.05;18.42;;;;;;;9.66;94.72;102348.53;5093430;28;20035;-35
2021/11/14 10:56:28;;;;;;;24.92;18.05;;;;;;;9.66;95.77;102343.97;5093193;28;20374;-35
2021/11/14 10:58:54;;;;;;;21.73;16.67;;;;;;;9.74;94.58;102353.81;5093011;28;20091;-35
2021/11/14 11:01:20;;;;;;;22.38;18.67;;;;;;;9.71;93.25;102354.19;5092715;28;20024;-35
2021/11/14 11:03:49;;;;;;;19.80;14.65;;;;;;;9.74;91.85;102361.94;5092685;28;20035;-35
2021/11/14 11:06:24;;;;;;;21.60;15.88;;;;;;;9.91;93.99;102368.81;5093123;28;20047;-35
2021/11/14 11:08:51;;;;;;;16.38;13.82;;;;;;;9.86;91.18;102341.53;5092637;28;20020;-35
2021/11/14 11:11:20;;;;;;;16.55;13.43;;;;;;;9.94;90.98;102362.16;5092871;28;20093;-34